Time;durP1;ratioP1;P1;durP2;ratioP2;P2;SDS_P1;SDS_P2;PMS_P1;PMS_P2;Temp;Humidity;BMP_temperature;BMP_pressure;BME280_temperature;BME280_humidity;BME280_pressure;Samples;Min_cycle;Max_cycle;Signal;HPM_P1;HPM_P2
2022/03/25 00:02:15;;;;;;;111.70;56.55;;;3.50;78.80;;;;;;5104893;28;20546;-67
2022/03/25 00:04:41;;;;;;;105.80;56.50;;;3.50;78.80;;;;;;5070198;28;20195;-67
2022/03/25 00:07:07;;;;;;;107.90;55.83;;;3.50;78.80;;;;;;5107666;27;20476;-67
2022/03/25 00:09:33;;;;;;;104.95;57.10;;;3.50;78.90;;;;;;5125913;27;20035;-67
2022/03/25 00:11:59;;;;;;;108.68;55.85;;;3.40;79.00;;;;;;5087890;28;20139;-67
2022/03/25 00:14:25;;;;;;;110.35;58.75;;;3.40;79.00;;;;;;5118499;27;20119;-67
2022/03/25 00:16:51;;;;;;;111.03;58.23;;;3.30;79.40;;;;;;5095104;28;20452;-67
2022/03/25 00:19:17;;;;;;;120.13;59.07;;;3.30;79.20;;;;;;5104806;28;20048;-67
2022/03/25 00:21:43;;;;;;;115.97;57.17;;;3.20;79.40;;;;;;5074856;28;20523;-67
2022/03/25 00:24:09;;;;;;;112.97;58.42;;;3.20;79.20;;;;;;5090312;28;20056;-67
2022/03/25 00:26:35;;;;;;;118.17;60.07;;;3.10;79.20;;;;;;5101352;28;20046;-67
2022/03/25 00:29:01;;;;;;;114.90;57.30;;;3.10;79.90;;;;;;5082286;28;20059;-67
2022/03/25 00:31:27;;;;;;;111.43;57.97;;;3.00;79.80;;;;;;5079121;28;20699;-67
2022/03/25 00:33:53;;;;;;;111.23;57.20;;;3.00;79.70;;;;;;5076607;28;20036;-67
2022/03/25 00:36:21;;;;;;;124.00;61.00;;;2.90;79.90;;;;;;5104507;28;20125;-67
2022/03/25 00:38:47;;;;;;;122.03;61.47;;;2.90;79.80;;;;;;5099935;28;20048;-67
2022/03/25 00:41:13;;;;;;;115.03;58.72;;;2.90;80.10;;;;;;5088630;28;20431;-67
2022/03/25 00:43:42;;;;;;;113.72;58.33;;;2.80;80.00;;;;;;5089894;28;20078;-67
2022/03/25 00:46:08;;;;;;;121.07;60.70;;;2.70;80.10;;;;;;5088193;28;20044;-67
2022/03/25 00:48:34;;;;;;;116.13;58.53;;;2.70;80.10;;;;;;5090581;28;20051;-67
2022/03/25 00:51:00;;;;;;;118.93;58.07;;;2.70;80.20;;;;;;5091993;28;20340;-67
2022/03/25 00:53:26;;;;;;;106.10;57.57;;;2.70;80.50;;;;;;5091137;28;20038;-67
2022/03/25 00:55:52;;;;;;;110.13;58.50;;;2.60;80.40;;;;;;5094716;28;20527;-67
2022/03/25 00:58:19;;;;;;;114.30;57.33;;;2.60;80.60;;;;;;5079774;28;20677;-67
2022/03/25 01:00:45;;;;;;;107.88;55.85;;;2.60;80.50;;;;;;5081204;28;20118;-67
2022/03/25 01:03:11;;;;;;;110.18;55.90;;;2.60;80.50;;;;;;5096047;28;20640;-67
2022/03/25 01:05:37;;;;;;;119.27;59.23;;;2.50;80.50;;;;;;5087252;28;20047;-67
2022/03/25 01:08:04;;;;;;;115.60;59.50;;;2.50;80.50;;;;;;5080896;28;20039;-67
2022/03/25 01:10:31;;;;;;;123.85;57.92;;;2.50;81.00;;;;;;5078121;28;20039;-67
2022/03/25 01:12:57;;;;;;;108.10;55.25;;;2.40;80.90;;;;;;5089195;28;20047;-67
2022/03/25 01:15:23;;;;;;;124.78;59.75;;;2.40;80.80;;;;;;5089462;28;20082;-67
2022/03/25 01:17:49;;;;;;;115.95;56.05;;;2.30;80.70;;;;;;5092133;28;20036;-67
2022/03/25 01:20:16;;;;;;;119.23;58.93;;;2.30;80.80;;;;;;5053602;28;20059;-67
2022/03/25 01:22:41;;;;;;;120.65;58.95;;;2.20;80.70;;;;;;5067441;28;20549;-67
2022/03/25 01:25:08;;;;;;;107.67;56.37;;;2.20;80.70;;;;;;5070785;28;20084;-67
2022/03/25 01:27:34;;;;;;;117.75;57.92;;;2.20;80.70;;;;;;5094236;28;20051;-67
2022/03/25 01:30:00;;;;;;;113.85;54.95;;;2.20;80.70;;;;;;5070509;28;20032;-67
2022/03/25 01:32:26;;;;;;;115.80;57.17;;;2.20;80.80;;;;;;5080362;28;20549;-67
2022/03/25 01:34:53;;;;;;;103.03;54.03;;;2.10;80.70;;;;;;5093806;28;20064;-67
2022/03/25 01:37:18;;;;;;;119.22;58.58;;;2.20;80.90;;;;;;5095259;28;20301;-67
2022/03/25 01:39:44;;;;;;;116.27;58.37;;;2.10;80.90;;;;;;5074672;28;20039;-67
2022/03/25 01:42:10;;;;;;;118.80;57.60;;;2.10;80.80;;;;;;5082459;28;20181;-67
2022/03/25 01:44:37;;;;;;;103.32;55.72;;;2.00;80.90;;;;;;5095716;28;20043;-67
2022/03/25 01:47:07;;;;;;;112.22;55.55;;;2.00;80.80;;;;;;5094369;28;20048;-67
2022/03/25 01:49:34;;;;;;;109.28;55.50;;;2.00;80.90;;;;;;5102168;28;20047;-67
2022/03/25 01:52:02;;;;;;;108.03;55.85;;;1.90;80.90;;;;;;5082426;28;20044;-67
2022/03/25 01:54:31;;;;;;;109.60;54.65;;;1.90;80.90;;;;;;5098717;28;20132;-67
2022/03/25 01:57:06;;;;;;;127.70;57.20;;;1.90;80.90;;;;;;5090610;28;20467;-67
2022/03/25 01:59:33;;;;;;;116.25;56.65;;;1.80;80.90;;;;;;5095106;28;20044;-67
2022/03/25 02:02:02;;;;;;;112.18;57.88;;;1.80;80.80;;;;;;5085081;28;20063;-67
2022/03/25 02:04:28;;;;;;;117.22;57.22;;;1.80;80.90;;;;;;5085231;28;20104;-67
2022/03/25 02:06:54;;;;;;;110.88;56.60;;;1.80;81.30;;;;;;5085120;28;20043;-67
2022/03/25 02:09:20;;;;;;;108.07;53.27;;;1.70;81.20;;;;;;5086966;28;20040;-67
2022/03/25 02:11:46;;;;;;;112.00;53.20;;;1.70;81.10;;;;;;5088755;28;20047;-67
2022/03/25 02:14:12;;;;;;;116.93;54.27;;;1.60;81.10;;;;;;5087454;28;20080;-67
2022/03/25 02:16:43;;;;;;;107.72;52.35;;;1.50;81.20;;;;;;5073023;28;20791;-67
2022/03/25 02:19:10;;;;;;;107.93;49.30;;;1.50;81.60;;;;;;5084669;28;20059;-67
2022/03/25 02:21:42;;;;;;;113.13;46.88;;;1.50;82.00;;;;;;5076561;28;20278;-67
2022/03/25 02:24:09;;;;;;;103.05;46.28;;;1.50;83.00;;;;;;5093667;28;20404;-67
2022/03/25 02:26:36;;;;;;;97.35;45.28;;;1.40;83.50;;;;;;5082417;28;20071;-67
2022/03/25 02:29:07;;;;;;;74.85;38.20;;;1.40;83.60;;;;;;5090216;28;20594;-67
2022/03/25 02:31:34;;;;;;;87.55;42.10;;;1.30;83.30;;;;;;5074979;28;20044;-67
2022/03/25 02:34:06;;;;;;;75.40;39.55;;;1.20;82.90;;;;;;5096350;28;20047;-67
2022/03/25 02:36:39;;;;;;;78.28;41.30;;;1.10;82.70;;;;;;5071138;28;20047;-67
2022/03/25 02:39:06;;;;;;;90.60;45.22;;;1.10;82.60;;;;;;5085129;28;20051;-67
2022/03/25 02:41:32;;;;;;;101.43;47.50;;;1.00;82.30;;;;;;5090030;28;20507;-67
2022/03/25 02:43:59;;;;;;;95.88;46.97;;;1.00;82.30;;;;;;5064275;28;20051;-67
2022/03/25 02:46:25;;;;;;;89.70;45.00;;;1.00;82.30;;;;;;5073752;28;20040;-67
2022/03/25 02:48:52;;;;;;;93.25;45.40;;;1.00;82.10;;;;;;5090415;28;20087;-67
2022/03/25 02:51:18;;;;;;;101.65;47.90;;;1.00;82.10;;;;;;5083000;28;20131;-67
2022/03/25 02:53:43;;;;;;;109.40;50.13;;;1.00;82.10;;;;;;5080176;28;20123;-67
2022/03/25 02:56:09;;;;;;;89.73;45.07;;;1.00;82.10;;;;;;5081878;28;20043;-67
2022/03/25 02:58:35;;;;;;;103.93;46.83;;;1.00;82.10;;;;;;5099058;28;20098;-67
2022/03/25 03:01:01;;;;;;;105.60;45.67;;;1.00;82.70;;;;;;5068441;28;20397;-67
2022/03/25 03:03:27;;;;;;;83.60;42.00;;;1.00;82.70;;;;;;5088626;28;20048;-67
2022/03/25 03:05:53;;;;;;;86.37;42.17;;;0.90;82.60;;;;;;5082755;28;20036;-67
2022/03/25 03:08:19;;;;;;;87.20;41.97;;;0.90;82.30;;;;;;5054572;28;20075;-67
2022/03/25 03:10:44;;;;;;;98.70;44.50;;;0.90;82.20;;;;;;5069523;28;20075;-67
2022/03/25 03:13:10;;;;;;;93.70;42.97;;;0.80;82.20;;;;;;5061998;28;20074;-67
2022/03/25 03:15:37;;;;;;;96.82;43.30;;;0.80;82.10;;;;;;5076406;28;20064;-67
2022/03/25 03:18:03;;;;;;;80.55;38.53;;;0.70;82.30;;;;;;5075472;28;20051;-67
2022/03/25 03:20:29;;;;;;;83.03;42.22;;;0.70;82.30;;;;;;5091788;28;20040;-67
2022/03/25 03:22:57;;;;;;;74.30;39.00;;;0.70;82.30;;;;;;5079710;28;20485;-67
2022/03/25 03:25:26;;;;;;;68.13;37.10;;;0.70;82.30;;;;;;5084653;28;20412;-67
2022/03/25 03:27:52;;;;;;;86.00;41.97;;;0.60;82.20;;;;;;5103127;28;20054;-67
2022/03/25 03:30:18;;;;;;;94.20;45.47;;;0.60;82.20;;;;;;5070863;28;20373;-67
2022/03/25 03:32:45;;;;;;;86.15;42.85;;;0.60;82.50;;;;;;5106458;28;20035;-67
2022/03/25 03:35:11;;;;;;;90.60;44.28;;;0.60;82.60;;;;;;5094515;28;20036;-67
2022/03/25 03:37:42;;;;;;;94.72;44.45;;;0.60;82.40;;;;;;5072425;28;20040;-67
2022/03/25 03:40:10;;;;;;;90.97;44.30;;;0.70;82.90;;;;;;5089339;28;20040;-67
2022/03/25 03:42:36;;;;;;;92.53;45.45;;;0.70;82.70;;;;;;5075550;28;20086;-67
2022/03/25 03:45:03;;;;;;;92.60;44.67;;;0.70;82.60;;;;;;5070876;28;20047;-67
2022/03/25 03:47:29;;;;;;;106.88;48.25;;;0.70;82.50;;;;;;5073103;28;20035;-67
2022/03/25 03:49:55;;;;;;;82.88;41.92;;;0.70;82.50;;;;;;5087959;28;20051;-67
2022/03/25 03:52:23;;;;;;;78.07;40.27;;;0.70;82.40;;;;;;5054474;28;20122;-67
2022/03/25 03:54:49;;;;;;;72.97;39.40;;;0.70;82.40;;;;;;5078741;28;20048;-67
2022/03/25 03:57:15;;;;;;;76.80;39.20;;;0.60;82.30;;;;;;5071704;28;20105;-67
2022/03/25 03:59:40;;;;;;;88.17;41.00;;;0.60;82.20;;;;;;5077863;28;20127;-67
2022/03/25 04:02:07;;;;;;;77.43;40.07;;;0.60;82.60;;;;;;5087129;28;20086;-67
2022/03/25 04:04:34;;;;;;;85.22;42.38;;;0.50;82.70;;;;;;5047513;28;20044;-67
2022/03/25 04:07:00;;;;;;;92.78;44.05;;;0.60;82.50;;;;;;5073264;28;20118;-67
2022/03/25 04:09:26;;;;;;;89.47;43.92;;;0.50;82.50;;;;;;5092778;28;20083;-67
2022/03/25 04:11:53;;;;;;;84.77;42.70;;;0.50;82.30;;;;;;5057340;28;20070;-67
2022/03/25 04:14:19;;;;;;;90.65;42.25;;;0.50;82.30;;;;;;5090469;28;20786;-67
2022/03/25 04:16:45;;;;;;;90.20;42.58;;;0.50;82.40;;;;;;5083964;28;20118;-67
2022/03/25 04:19:11;;;;;;;100.60;48.00;;;0.50;82.30;;;;;;5101198;28;20109;-67
2022/03/25 04:21:37;;;;;;;103.70;48.47;;;0.50;82.30;;;;;;5106310;28;20039;-67
2022/03/25 04:24:02;;;;;;;90.60;44.90;;;0.50;82.40;;;;;;5082220;28;20653;-67
2022/03/25 04:26:28;;;;;;;96.40;45.67;;;0.50;82.30;;;;;;5102274;28;20402;-67
2022/03/25 04:28:54;;;;;;;98.07;45.50;;;0.40;82.40;;;;;;5074052;28;20044;-67
2022/03/25 04:31:20;;;;;;;95.57;45.23;;;0.40;82.20;;;;;;5093922;28;20071;-67
2022/03/25 04:33:46;;;;;;;86.77;44.17;;;0.40;82.30;;;;;;5074155;28;20043;-67
2022/03/25 04:36:12;;;;;;;80.07;41.93;;;0.40;82.30;;;;;;5081952;28;20047;-67
2022/03/25 04:38:37;;;;;;;88.22;44.35;;;0.40;82.20;;;;;;5094806;28;20047;-67
2022/03/25 04:41:03;;;;;;;98.90;46.57;;;0.30;82.30;;;;;;5089575;28;20137;-67
2022/03/25 04:43:29;;;;;;;114.60;49.63;;;0.40;82.20;;;;;;5071117;28;20385;-67
2022/03/25 04:45:55;;;;;;;111.13;50.83;;;0.40;82.30;;;;;;5088023;28;20449;-67
2022/03/25 04:48:20;;;;;;;101.70;48.10;;;0.40;82.30;;;;;;5086292;28;20040;-67
2022/03/25 04:50:46;;;;;;;104.10;50.63;;;0.40;82.30;;;;;;5077720;28;20067;-67
2022/03/25 04:53:12;;;;;;;120.90;51.37;;;0.30;82.30;;;;;;5104710;28;20403;-67
2022/03/25 04:55:38;;;;;;;109.55;50.10;;;0.30;82.50;;;;;;5092080;28;20039;-67
2022/03/25 04:58:04;;;;;;;111.50;51.77;;;0.40;82.50;;;;;;5074790;28;20130;-67
2022/03/25 05:00:30;;;;;;;103.72;50.00;;;0.40;82.50;;;;;;5092569;28;20559;-67
2022/03/25 05:02:56;;;;;;;118.15;53.65;;;0.40;82.60;;;;;;5092282;28;20123;-67
2022/03/25 05:05:21;;;;;;;127.57;55.80;;;0.40;82.40;;;;;;5069184;28;20040;-67
2022/03/25 05:07:50;;;;;;;130.60;57.10;;;0.50;82.60;;;;;;5086385;28;20043;-67
2022/03/25 05:10:16;;;;;;;122.97;57.50;;;0.50;82.60;;;;;;5051035;28;20032;-67
2022/03/25 05:12:43;;;;;;;123.22;55.88;;;0.50;82.50;;;;;;5067880;28;20046;-67
2022/03/25 05:15:10;;;;;;;126.90;56.42;;;0.50;82.60;;;;;;5053291;28;20047;-67
2022/03/25 05:17:44;;;;;;;133.82;56.33;;;0.60;82.60;;;;;;5084299;28;20028;-67
2022/03/25 05:20:10;;;;;;;112.10;53.72;;;0.60;82.60;;;;;;5074908;28;20561;-67
2022/03/25 05:22:36;;;;;;;124.78;55.17;;;0.60;82.50;;;;;;5094609;28;20071;-67
2022/03/25 05:25:06;;;;;;;128.07;54.73;;;0.50;82.50;;;;;;5078701;28;20521;-67
2022/03/25 05:27:42;;;;;;;143.57;59.03;;;0.50;82.60;;;;;;5078106;28;20084;-67
2022/03/25 05:30:08;;;;;;;138.80;59.30;;;0.50;82.70;;;;;;5078586;28;20446;-67
2022/03/25 05:32:34;;;;;;;123.75;56.40;;;0.50;82.70;;;;;;5079872;28;20039;-67
2022/03/25 05:35:01;;;;;;;118.07;52.92;;;0.50;82.60;;;;;;5078189;28;20488;-67
2022/03/25 05:37:26;;;;;;;125.43;55.75;;;0.50;82.60;;;;;;5079862;28;20036;-66
2022/03/25 05:39:52;;;;;;;126.47;57.20;;;0.50;83.00;;;;;;5079805;28;20157;-66
2022/03/25 05:42:17;;;;;;;145.80;60.73;;;0.60;83.00;;;;;;5073287;28;20103;-67
2022/03/25 05:44:43;;;;;;;132.23;56.97;;;0.60;83.00;;;;;;5080838;28;20103;-67
2022/03/25 05:47:09;;;;;;;139.57;58.03;;;0.70;83.00;;;;;;5093761;28;20044;-67
2022/03/25 05:49:35;;;;;;;120.55;55.28;;;0.70;82.90;;;;;;5071424;28;20123;-67
2022/03/25 05:52:01;;;;;;;134.00;58.17;;;0.80;82.90;;;;;;5073836;28;20122;-67
2022/03/25 05:54:26;;;;;;;128.93;55.03;;;0.80;82.90;;;;;;5048726;28;20041;-67
2022/03/25 05:56:52;;;;;;;133.57;59.03;;;0.90;82.90;;;;;;5076049;28;20032;-67
2022/03/25 05:59:18;;;;;;;142.60;60.60;;;0.90;82.90;;;;;;5096809;28;20128;-67
2022/03/25 06:01:43;;;;;;;131.77;59.97;;;1.00;83.00;;;;;;5076607;28;20051;-67
2022/03/25 06:04:09;;;;;;;127.50;58.13;;;1.10;83.00;;;;;;5087701;28;20036;-67
2022/03/25 06:06:35;;;;;;;119.37;54.60;;;1.10;83.00;;;;;;5087382;28;20051;-67
2022/03/25 06:09:00;;;;;;;121.33;56.07;;;1.20;83.10;;;;;;5070131;28;20036;-67
2022/03/25 06:11:26;;;;;;;128.40;57.07;;;1.30;83.20;;;;;;5051297;28;20085;-67
2022/03/25 06:13:52;;;;;;;124.20;54.63;;;1.40;83.30;;;;;;5084752;28;20036;-67
2022/03/25 06:16:18;;;;;;;124.05;55.88;;;1.50;83.30;;;;;;5085096;28;20039;-67
2022/03/25 06:18:43;;;;;;;114.07;54.20;;;1.60;83.30;;;;;;5080010;28;20392;-67
2022/03/25 06:21:09;;;;;;;119.70;54.97;;;1.60;83.20;;;;;;5091805;28;20571;-67
2022/03/25 06:23:35;;;;;;;132.37;58.83;;;1.70;83.20;;;;;;5079316;28;20051;-67
2022/03/25 06:26:01;;;;;;;114.90;55.53;;;1.80;83.20;;;;;;5080608;28;20055;-67
2022/03/25 06:28:27;;;;;;;112.17;52.90;;;1.90;83.30;;;;;;5088304;28;20044;-67
2022/03/25 06:30:53;;;;;;;112.70;53.67;;;2.00;83.30;;;;;;5066551;28;20110;-67
2022/03/25 06:33:18;;;;;;;102.93;49.90;;;2.20;83.40;;;;;;5054819;28;20091;-67
2022/03/25 06:35:44;;;;;;;102.07;48.07;;;2.30;83.30;;;;;;5073932;28;20028;-67
2022/03/25 06:38:10;;;;;;;99.90;48.23;;;2.50;83.40;;;;;;5064729;28;20236;-67
2022/03/25 06:40:36;;;;;;;103.27;48.03;;;2.60;83.30;;;;;;5068570;28;20113;-67
2022/03/25 06:43:03;;;;;;;90.88;47.38;;;2.80;83.30;;;;;;5072478;28;20048;-67
2022/03/25 06:45:28;;;;;;;99.88;49.10;;;2.90;83.10;;;;;;5089219;28;20134;-67
2022/03/25 06:47:55;;;;;;;90.57;46.53;;;3.10;83.00;;;;;;5086460;28;20222;-67
2022/03/25 06:50:22;;;;;;;90.43;46.95;;;3.30;82.80;;;;;;5089690;28;20039;-67
2022/03/25 06:52:48;;;;;;;91.65;47.75;;;3.40;82.80;;;;;;5091553;28;20067;-67
2022/03/25 06:55:15;;;;;;;87.93;46.28;;;3.50;82.50;;;;;;5079849;28;20039;-67
2022/03/25 06:57:41;;;;;;;82.70;44.92;;;3.70;82.30;;;;;;5080051;28;20040;-67
2022/03/25 07:00:12;;;;;;;84.45;43.28;;;3.80;82.30;;;;;;5100788;28;20047;-67
2022/03/25 07:02:42;;;;;;;81.75;44.45;;;4.00;82.20;;;;;;5074870;28;20040;-67
2022/03/25 07:05:10;;;;;;;82.00;42.50;;;4.10;82.00;;;;;;5106196;27;20447;-67
2022/03/25 07:07:41;;;;;;;81.25;43.67;;;4.20;81.70;;;;;;5089730;28;20553;-67
2022/03/25 07:10:09;;;;;;;77.82;43.72;;;4.40;81.60;;;;;;5074465;28;20047;-67
2022/03/25 07:12:39;;;;;;;79.30;43.15;;;4.50;81.40;;;;;;5072529;28;20068;-67
2022/03/25 07:15:07;;;;;;;80.82;43.78;;;4.70;81.10;;;;;;5094268;28;20039;-67
2022/03/25 07:17:33;;;;;;;81.38;43.35;;;4.80;80.90;;;;;;5099206;28;20072;-67
2022/03/25 07:19:59;;;;;;;82.53;43.35;;;4.90;80.60;;;;;;5102875;28;20043;-67
2022/03/25 07:22:25;;;;;;;86.20;43.33;;;5.10;80.40;;;;;;5082105;28;20068;-67
2022/03/25 07:24:50;;;;;;;85.20;40.60;;;5.20;80.10;;;;;;5096986;28;20060;-67
2022/03/25 07:27:16;;;;;;;73.87;41.33;;;5.30;79.70;;;;;;5077867;28;20520;-67
2022/03/25 07:29:42;;;;;;;76.33;39.93;;;5.50;79.30;;;;;;5080354;28;20058;-67
2022/03/25 07:32:07;;;;;;;76.67;40.33;;;5.60;78.80;;;;;;5094397;28;20040;-67
2022/03/25 07:34:36;;;;;;;70.93;40.27;;;5.70;78.30;;;;;;5097895;28;20044;-67
2022/03/25 07:37:03;;;;;;;65.30;37.40;;;5.90;77.90;;;;;;5077103;28;20130;-68
2022/03/25 07:39:30;;;;;;;65.38;37.33;;;6.00;77.50;;;;;;5071237;28;20224;-68
2022/03/25 07:41:55;;;;;;;65.63;39.00;;;6.10;77.40;;;;;;5066220;28;20123;-68
2022/03/25 07:44:21;;;;;;;68.30;38.47;;;6.30;77.10;;;;;;5084460;28;20165;-68
2022/03/25 07:46:47;;;;;;;63.73;36.03;;;6.40;76.80;;;;;;5092348;28;20051;-68
2022/03/25 07:49:12;;;;;;;59.47;33.93;;;6.60;76.70;;;;;;5092210;28;20050;-68
2022/03/25 07:51:38;;;;;;;62.03;34.10;;;6.70;76.20;;;;;;5088718;28;20043;-68
2022/03/25 07:54:05;;;;;;;58.70;34.47;;;6.90;75.70;;;;;;5068906;28;20051;-68
2022/03/25 07:56:31;;;;;;;54.80;33.08;;;7.00;75.40;;;;;;5088403;28;20385;-68
2022/03/25 07:58:59;;;;;;;47.30;28.47;;;7.10;75.20;;;;;;5067706;28;20089;-68
2022/03/25 08:01:25;;;;;;;49.30;29.95;;;7.30;74.50;;;;;;5071265;28;20123;-68
2022/03/25 08:03:51;;;;;;;48.58;26.95;;;7.40;73.70;;;;;;5070339;28;20452;-68
2022/03/25 08:06:16;;;;;;;40.13;23.87;;;7.60;72.30;;;;;;5085875;28;20515;-68
2022/03/25 08:08:42;;;;;;;49.50;27.47;;;7.70;71.10;;;;;;5048742;28;20086;-68
2022/03/25 08:11:08;;;;;;;44.10;26.37;;;7.80;70.30;;;;;;5086596;28;20489;-68
2022/03/25 08:13:34;;;;;;;40.83;25.70;;;7.90;69.80;;;;;;5086195;28;20036;-68
2022/03/25 08:16:00;;;;;;;43.88;26.92;;;8.10;68.90;;;;;;5070190;28;20273;-68
2022/03/25 08:18:26;;;;;;;45.50;28.17;;;8.20;68.70;;;;;;5067990;28;20188;-68
2022/03/25 08:20:53;;;;;;;50.13;27.97;;;8.20;68.70;;;;;;5070211;28;20485;-68
2022/03/25 08:29:02;;;;;;;46.95;26.73;;;8.60;67.70;;;;;;5092255;27;20451;-68
2022/03/25 08:31:34;;;;;;;38.85;25.40;;;8.80;67.70;;;;;;5046358;28;20135;-68
2022/03/25 08:34:04;;;;;;;44.53;26.77;;;8.80;67.30;;;;;;5073795;28;20125;-68
2022/03/25 08:36:30;;;;;;;44.35;25.95;;;8.90;67.30;;;;;;5099405;27;20040;-68
2022/03/25 08:38:56;;;;;;;41.80;26.13;;;9.00;66.70;;;;;;5067370;28;20409;-68
2022/03/25 08:41:21;;;;;;;44.23;26.50;;;9.10;67.00;;;;;;5064229;28;20082;-68
2022/03/25 08:43:47;;;;;;;41.33;25.93;;;9.10;66.60;;;;;;5082144;28;20040;-68
2022/03/25 08:46:13;;;;;;;38.23;24.03;;;9.20;66.80;;;;;;5066098;28;20039;-68
2022/03/25 08:48:39;;;;;;;37.70;23.58;;;9.30;66.40;;;;;;5083844;28;20044;-68
2022/03/25 08:51:05;;;;;;;38.95;24.85;;;9.40;65.90;;;;;;5050287;28;20040;-68
2022/03/25 08:53:31;;;;;;;40.90;23.27;;;9.50;65.30;;;;;;5049417;28;20040;-68
2022/03/25 08:55:57;;;;;;;35.08;21.95;;;9.50;64.90;;;;;;5049946;28;20052;-68
2022/03/25 08:58:23;;;;;;;39.37;22.27;;;9.60;63.40;;;;;;5082192;28;20045;-68
2022/03/25 09:00:49;;;;;;;36.37;20.00;;;9.70;62.00;;;;;;5059577;28;20036;-68
2022/03/25 09:03:14;;;;;;;30.60;19.53;;;9.70;62.40;;;;;;5066507;28;20049;-68
2022/03/25 09:05:40;;;;;;;38.93;19.93;;;9.80;60.90;;;;;;5029032;28;20338;-68
2022/03/25 09:08:06;;;;;;;31.83;19.20;;;9.90;60.70;;;;;;5065026;28;20047;-68
2022/03/25 09:10:33;;;;;;;31.90;19.05;;;10.00;60.70;;;;;;5096898;27;20153;-68
2022/03/25 09:12:59;;;;;;;30.70;18.85;;;10.10;60.20;;;;;;5025127;28;20047;-68
2022/03/25 09:15:25;;;;;;;34.25;19.85;;;10.30;59.40;;;;;;5028785;28;20044;-68
2022/03/25 09:17:51;;;;;;;28.52;17.45;;;10.40;59.00;;;;;;5062594;28;20501;-68
2022/03/25 09:20:17;;;;;;;28.87;18.23;;;10.50;58.90;;;;;;5061591;28;20045;-68
2022/03/25 09:22:43;;;;;;;31.47;18.40;;;10.60;58.50;;;;;;5068748;28;20259;-68
2022/03/25 09:25:09;;;;;;;28.10;16.95;;;10.70;58.10;;;;;;5093895;28;20079;-68
2022/03/25 09:27:36;;;;;;;28.30;17.75;;;10.80;57.30;;;;;;5083971;28;20051;-68
2022/03/25 09:30:03;;;;;;;29.98;17.77;;;10.90;56.70;;;;;;5093417;28;20327;-68
2022/03/25 09:32:29;;;;;;;26.55;17.85;;;11.00;56.40;;;;;;5078991;28;20043;-68
2022/03/25 09:35:10;;;;;;;28.57;18.30;;;11.20;56.70;;;;;;5074615;28;20044;-69
2022/03/25 09:37:45;;;;;;;34.75;19.33;;;11.30;56.40;;;;;;5085757;28;20120;-69
2022/03/25 09:40:19;;;;;;;29.63;18.20;;;11.40;57.00;;;;;;5091811;28;20652;-69
2022/03/25 09:42:45;;;;;;;28.75;17.90;;;11.60;56.30;;;;;;5090158;28;20036;-69
2022/03/25 09:45:15;;;;;;;29.60;17.65;;;11.70;55.70;;;;;;5075330;28;20580;-69
2022/03/25 09:47:42;;;;;;;29.17;18.23;;;11.80;54.90;;;;;;5073362;28;20052;-68
2022/03/25 09:50:12;;;;;;;31.40;18.92;;;11.90;55.00;;;;;;5056081;28;20054;-68
2022/03/25 09:52:38;;;;;;;31.23;18.67;;;12.00;54.30;;;;;;5088746;28;20040;-68
2022/03/25 09:55:05;;;;;;;29.88;17.70;;;12.10;54.30;;;;;;5088468;28;20101;-68
2022/03/25 09:57:31;;;;;;;25.83;16.67;;;12.20;53.90;;;;;;5092499;28;20127;-69
2022/03/25 09:59:57;;;;;;;30.48;17.25;;;12.30;53.20;;;;;;5083853;28;20050;-69
2022/03/25 10:02:26;;;;;;;28.45;17.25;;;12.40;53.70;;;;;;5075412;28;20626;-69
2022/03/25 10:04:53;;;;;;;29.30;18.30;;;12.50;53.90;;;;;;5089785;28;20128;-70
2022/03/25 10:07:27;;;;;;;30.38;16.77;;;12.60;53.70;;;;;;5077706;28;20055;-69
2022/03/25 10:10:22;;;;;;;27.10;17.35;;;12.80;52.90;;;;;;5093538;28;20059;-69
2022/03/25 10:13:02;;;;;;;29.13;16.85;;;12.90;52.60;;;;;;5097157;28;20547;-70
2022/03/25 10:15:34;;;;;;;26.67;15.55;;;13.10;51.60;;;;;;5084422;28;20119;-70
2022/03/25 10:18:04;;;;;;;26.42;16.00;;;13.20;50.90;;;;;;5087636;28;20028;-70
2022/03/25 10:20:41;;;;;;;29.20;16.65;;;13.20;50.40;;;;;;5097925;28;20092;-70
2022/03/25 10:23:19;;;;;;;25.07;16.47;;;13.30;49.20;;;;;;5066626;28;20036;-70
2022/03/25 10:25:51;;;;;;;31.17;17.13;;;13.30;50.10;;;;;;5100899;28;20288;-70
2022/03/25 10:28:31;;;;;;;27.63;16.73;;;13.40;49.90;;;;;;5071307;28;20301;-70
2022/03/25 10:31:02;;;;;;;27.70;17.30;;;13.60;49.30;;;;;;5095365;28;20289;-70
2022/03/25 10:33:30;;;;;;;30.13;17.57;;;13.70;49.50;;;;;;5106929;27;20356;-70
2022/03/25 10:36:07;;;;;;;27.37;17.00;;;13.70;49.00;;;;;;5094605;28;20848;-70
2022/03/25 10:38:42;;;;;;;29.33;17.80;;;13.80;48.90;;;;;;5119024;27;20293;-70
2022/03/25 10:41:08;;;;;;;27.25;17.00;;;13.90;47.90;;;;;;5122112;27;20649;-70
2022/03/25 10:43:34;;;;;;;28.33;18.13;;;14.00;48.10;;;;;;5083295;28;20048;-70
2022/03/25 10:45:59;;;;;;;28.07;18.40;;;14.10;48.00;;;;;;5100770;28;20289;-70
2022/03/25 10:48:25;;;;;;;27.67;18.17;;;14.10;47.90;;;;;;5085471;28;20035;-70
2022/03/25 10:51:08;;;;;;;33.43;17.77;;;14.20;47.80;;;;;;5083154;28;20089;-70
2022/03/25 10:53:38;;;;;;;28.67;17.83;;;14.30;46.60;;;;;;5100710;28;20044;-70
2022/03/25 10:56:12;;;;;;;28.10;17.33;;;14.40;47.80;;;;;;5088301;28;20274;-70
2022/03/25 10:58:38;;;;;;;28.70;17.53;;;14.50;47.70;;;;;;5127875;27;20285;-70
2022/03/25 11:01:06;;;;;;;29.27;17.80;;;14.60;45.80;;;;;;5101090;28;20725;-70
2022/03/25 11:03:32;;;;;;;25.43;17.03;;;14.70;46.40;;;;;;5094946;28;21198;-70
2022/03/25 11:05:58;;;;;;;31.10;18.07;;;14.80;46.70;;;;;;5103683;28;20388;-70
2022/03/25 11:08:23;;;;;;;31.80;19.53;;;14.90;46.10;;;;;;5080611;28;20395;-70
2022/03/25 11:10:50;;;;;;;33.87;19.63;;;15.00;45.70;;;;;;5121317;27;20468;-70
2022/03/25 11:13:17;;;;;;;29.07;18.63;;;15.00;45.40;;;;;;5093343;28;20074;-70
2022/03/25 11:15:45;;;;;;;31.43;18.37;;;15.10;45.10;;;;;;5114782;27;20516;-70
2022/03/25 11:18:12;;;;;;;27.23;16.33;;;15.10;44.90;;;;;;5098844;28;20391;-70
2022/03/25 11:20:40;;;;;;;28.30;17.73;;;15.20;44.50;;;;;;5104120;28;20692;-70
2022/03/25 11:23:17;;;;;;;30.53;17.83;;;15.30;43.70;;;;;;5076760;28;20277;-70
2022/03/25 11:25:46;;;;;;;28.43;17.53;;;15.30;44.00;;;;;;5116982;28;20964;-70
2022/03/25 11:28:16;;;;;;;28.07;16.83;;;15.30;44.40;;;;;;5082767;28;20540;-70
2022/03/25 11:30:42;;;;;;;30.37;17.80;;;15.40;44.90;;;;;;5131932;27;20281;-70
2022/03/25 11:33:09;;;;;;;27.77;16.67;;;15.60;44.00;;;;;;5067194;28;20289;-70
2022/03/25 11:35:42;;;;;;;28.43;16.17;;;15.70;43.40;;;;;;5079319;28;20293;-70
2022/03/25 11:38:11;;;;;;;25.03;15.03;;;15.70;42.30;;;;;;5101645;27;20281;-70
2022/03/25 11:40:39;;;;;;;27.03;15.67;;;15.80;42.70;;;;;;5101618;28;20308;-70
2022/03/25 11:43:23;;;;;;;26.80;16.93;;;15.80;41.90;;;;;;5060322;27;20362;-70
2022/03/25 11:46:03;;;;;;;26.67;15.70;;;15.90;42.00;;;;;;5124451;27;20334;-70
2022/03/25 11:48:28;;;;;;;25.73;14.90;;;15.90;41.00;;;;;;5126035;27;21253;-70
2022/03/25 11:50:57;;;;;;;25.57;16.50;;;15.90;41.00;;;;;;5130103;27;20273;-70
2022/03/25 11:53:23;;;;;;;25.53;14.93;;;16.00;41.30;;;;;;5121109;27;20093;-70
2022/03/25 11:56:09;;;;;;;27.43;16.23;;;16.10;41.80;;;;;;5089601;28;20308;-70
2022/03/25 11:58:39;;;;;;;26.97;14.87;;;16.20;40.50;;;;;;5100052;27;20114;-70
2022/03/25 12:01:12;;;;;;;24.40;14.23;;;16.20;39.90;;;;;;5103441;28;20349;-70
2022/03/25 12:03:56;;;;;;;21.67;13.53;;;16.30;40.40;;;;;;5097067;27;20959;-70
2022/03/25 12:06:29;;;;;;;21.20;13.13;;;16.40;40.30;;;;;;5095488;27;20803;-70
2022/03/25 12:09:18;;;;;;;24.87;13.43;;;16.50;39.60;;;;;;5094282;27;20318;-70
2022/03/25 12:12:02;;;;;;;23.37;12.57;;;16.60;39.40;;;;;;5137245;27;20750;-70
2022/03/25 12:14:32;;;;;;;20.40;13.07;;;16.60;38.10;;;;;;5087594;28;20282;-70
2022/03/25 12:17:06;;;;;;;21.87;12.33;;;16.70;38.00;;;;;;5107653;27;20273;-70
2022/03/25 12:19:41;;;;;;;20.07;13.00;;;16.60;38.00;;;;;;5099189;28;20287;-70
2022/03/25 12:22:19;;;;;;;25.50;13.73;;;16.60;38.70;;;;;;5104918;28;20368;-70
2022/03/25 12:24:46;;;;;;;24.47;14.67;;;16.70;37.50;;;;;;5088705;28;20087;-70
2022/03/25 12:27:11;;;;;;;23.37;15.10;;;16.60;39.00;;;;;;5082381;28;20613;-70
2022/03/25 12:29:50;;;;;;;25.33;16.33;;;16.70;39.70;;;;;;5123043;27;20297;-70
2022/03/25 12:32:18;;;;;;;30.23;17.50;;;16.80;39.30;;;;;;5105851;27;20035;-70
2022/03/25 12:34:55;;;;;;;26.97;17.57;;;16.80;40.50;;;;;;5098358;27;20677;-70
2022/03/25 12:37:38;;;;;;;28.87;17.97;;;16.80;39.90;;;;;;5109801;27;20751;-70
2022/03/25 12:40:25;;;;;;;29.77;18.60;;;16.90;40.00;;;;;;5130116;27;20293;-70